createdAt,value
2018-06-30T00:00:18.333Z,76.10
2018-06-30T00:02:47.539Z,76.30
2018-06-30T00:05:17.236Z,77.20
2018-06-30T00:07:47.093Z,77.00
2018-06-30T00:10:24.304Z,77.30
2018-06-30T00:12:53.812Z,77.30
2018-06-30T00:15:23.144Z,77.70
2018-06-30T00:17:52.326Z,78.00
2018-06-30T00:20:20.945Z,78.90
2018-06-30T00:22:49.746Z,78.00
2018-06-30T00:25:18.465Z,78.20
2018-06-30T00:27:47.783Z,78.20
2018-06-30T00:30:16.586Z,78.90
2018-06-30T00:32:45.257Z,78.60
2018-06-30T00:35:14.714Z,78.70
2018-06-30T00:37:43.399Z,78.80
2018-06-30T00:40:12.105Z,78.90
2018-06-30T00:42:41.193Z,79.30
2018-06-30T00:45:10.760Z,79.70
2018-06-30T00:47:41.073Z,79.10
2018-06-30T00:50:09.771Z,79.40
2018-06-30T00:52:38.876Z,79.60
2018-06-30T00:55:08.509Z,79.90
2018-06-30T00:57:37.530Z,79.60
2018-06-30T01:00:06.955Z,80.10
2018-06-30T01:02:37.928Z,80.20
2018-06-30T01:05:07.111Z,80.20
2018-06-30T01:07:37.774Z,81.10
2018-06-30T01:10:07.550Z,80.30
2018-06-30T01:12:36.473Z,80.20
2018-06-30T01:15:05.333Z,80.60
2018-06-30T01:17:34.197Z,80.70
2018-06-30T01:20:02.967Z,80.70
2018-06-30T01:22:31.674Z,80.70
2018-06-30T01:25:01.833Z,80.70
2018-06-30T01:27:30.573Z,80.90
2018-06-30T01:29:59.933Z,80.90
2018-06-30T01:32:28.866Z,81.10
2018-06-30T01:34:58.206Z,81.40
2018-06-30T01:37:27.236Z,81.20
2018-06-30T01:39:56.980Z,81.40
2018-06-30T01:42:26.717Z,81.40
2018-06-30T01:44:55.658Z,81.60
2018-06-30T01:47:24.641Z,81.80
2018-06-30T01:49:53.441Z,81.70
2018-06-30T01:52:22.177Z,81.70
2018-06-30T01:54:51.978Z,81.60
2018-06-30T01:57:20.825Z,81.80
2018-06-30T01:59:50.203Z,81.80
2018-06-30T02:02:18.921Z,81.90
2018-06-30T02:04:47.605Z,82.20
2018-06-30T02:07:17.003Z,82.30
2018-06-30T02:09:45.965Z,82.70
2018-06-30T02:12:18.706Z,82.50
2018-06-30T02:14:48.074Z,82.70
2018-06-30T02:17:17.559Z,82.70
2018-06-30T02:19:46.257Z,82.50
2018-06-30T02:22:14.910Z,82.90
2018-06-30T02:24:43.955Z,82.70
2018-06-30T02:27:13.656Z,82.60
2018-06-30T02:29:42.902Z,82.50
2018-06-30T02:32:12.384Z,82.70
2018-06-30T02:34:41.059Z,82.90
2018-06-30T02:37:10.395Z,82.80
2018-06-30T02:39:39.098Z,82.80
2018-06-30T02:42:08.008Z,82.90
2018-06-30T02:44:37.211Z,83.20
2018-06-30T02:47:05.981Z,83.40
2018-06-30T02:49:34.934Z,83.80
2018-06-30T02:52:03.636Z,83.70
2018-06-30T02:54:33.260Z,84.00
2018-06-30T02:57:01.976Z,84.10
2018-06-30T02:59:30.645Z,84.60
2018-06-30T03:02:02.431Z,84.60
2018-06-30T03:04:31.116Z,84.60
2018-06-30T03:06:59.774Z,84.70
2018-06-30T03:09:28.666Z,84.70
2018-06-30T03:11:59.008Z,84.80
2018-06-30T03:14:27.822Z,84.80
2018-06-30T03:16:56.618Z,85.00
2018-06-30T03:19:25.681Z,84.80
2018-06-30T03:21:54.274Z,84.90
2018-06-30T03:24:22.964Z,85.10
2018-06-30T03:26:51.750Z,85.70
2018-06-30T03:29:20.624Z,85.50
2018-06-30T03:31:49.365Z,85.60
2018-06-30T03:34:18.056Z,86.00
2018-06-30T03:36:46.898Z,86.00
2018-06-30T03:39:16.014Z,85.80
2018-06-30T03:41:44.826Z,86.00
2018-06-30T03:44:13.590Z,86.10
2018-06-30T03:46:42.250Z,86.40
2018-06-30T03:49:11.225Z,86.40
2018-06-30T03:51:40.750Z,86.20
2018-06-30T03:54:09.782Z,86.20
2018-06-30T03:56:38.447Z,86.40
2018-06-30T03:59:07.074Z,86.90
2018-06-30T04:01:35.712Z,86.70
2018-06-30T04:04:05.211Z,87.30
2018-06-30T04:06:34.008Z,86.90
2018-06-30T04:09:02.738Z,87.00
2018-06-30T04:11:32.423Z,87.30
2018-06-30T04:14:01.826Z,87.60
2018-06-30T04:16:30.600Z,87.30
2018-06-30T04:19:03.581Z,87.50
2018-06-30T04:21:33.143Z,87.70
2018-06-30T04:24:02.812Z,87.60
2018-06-30T04:26:31.509Z,87.80
2018-06-30T04:29:00.660Z,87.80
2018-06-30T04:31:31.171Z,87.80
2018-06-30T04:33:59.836Z,88.30
2018-06-30T04:36:28.722Z,88.10
2018-06-30T04:38:57.360Z,87.90
2018-06-30T04:41:26.071Z,88.20
2018-06-30T04:43:54.770Z,87.50
2018-06-30T04:46:23.617Z,88.10
2018-06-30T04:48:52.425Z,88.20
2018-06-30T04:51:21.120Z,87.90
2018-06-30T04:53:49.800Z,88.10
2018-06-30T04:56:18.511Z,87.20
2018-06-30T04:58:47.176Z,88.00
2018-06-30T05:01:15.842Z,88.90
2018-06-30T05:03:44.527Z,88.30
2018-06-30T05:06:13.651Z,88.40
2018-06-30T05:08:42.814Z,88.10
2018-06-30T05:11:11.501Z,87.50
2018-06-30T05:13:40.174Z,87.60
2018-06-30T05:16:09.250Z,87.30
2018-06-30T05:18:38.011Z,87.50
2018-06-30T05:21:06.879Z,87.60
2018-06-30T05:23:36.277Z,87.50
2018-06-30T05:26:05.011Z,86.80
2018-06-30T05:28:33.674Z,87.40
2018-06-30T05:31:02.332Z,87.50
2018-06-30T05:33:31.038Z,87.00
2018-06-30T05:36:00.727Z,87.00
2018-06-30T05:38:29.839Z,86.90
2018-06-30T05:40:58.540Z,86.20
2018-06-30T05:43:27.269Z,85.90
2018-06-30T05:45:55.987Z,86.40
2018-06-30T05:48:25.446Z,85.70
2018-06-30T05:50:55.105Z,85.10
2018-06-30T05:53:23.894Z,85.00
2018-06-30T05:55:53.296Z,85.10
2018-06-30T05:58:21.955Z,84.80
2018-06-30T06:00:51.336Z,84.70
2018-06-30T06:03:20.095Z,84.50
2018-06-30T06:05:48.802Z,84.30
2018-06-30T06:08:17.848Z,84.30
2018-06-30T06:10:46.869Z,84.10
2018-06-30T06:13:15.505Z,84.00
2018-06-30T06:15:44.285Z,83.10
2018-06-30T06:18:13.545Z,83.30
2018-06-30T06:20:42.209Z,82.90
2018-06-30T06:23:11.494Z,82.70
2018-06-30T06:25:40.193Z,82.30
2018-06-30T06:28:09.168Z,82.10
2018-06-30T06:30:37.821Z,82.10
2018-06-30T06:33:07.085Z,80.40
2018-06-30T06:35:35.740Z,79.60
2018-06-30T06:38:04.389Z,78.90
2018-06-30T06:40:33.900Z,78.70
2018-06-30T06:43:02.602Z,78.50
2018-06-30T06:45:32.716Z,77.70
2018-06-30T06:48:01.366Z,76.90
2018-06-30T06:50:30.054Z,77.40
2018-06-30T06:52:58.872Z,76.30
2018-06-30T06:55:27.532Z,76.20
2018-06-30T06:57:56.159Z,75.90
2018-06-30T07:00:24.823Z,75.90
2018-06-30T07:02:53.483Z,75.90
2018-06-30T07:05:22.112Z,75.10
2018-06-30T07:07:50.709Z,74.90
2018-06-30T07:10:19.364Z,74.30
2018-06-30T07:12:48.007Z,74.60
2018-06-30T07:15:18.141Z,74.60
2018-06-30T07:17:46.850Z,73.20
2018-06-30T07:20:16.257Z,73.80
2018-06-30T07:22:45.938Z,72.10
2018-06-30T07:25:14.428Z,72.90
2018-06-30T07:27:43.168Z,72.70
2018-06-30T07:30:11.908Z,72.50
2018-06-30T07:32:40.564Z,72.70
2018-06-30T07:35:10.341Z,72.80
2018-06-30T07:37:40.487Z,72.10
2018-06-30T07:40:09.267Z,73.10
2018-06-30T07:42:44.008Z,71.90
2018-06-30T07:45:12.681Z,71.50
2018-06-30T07:47:41.522Z,71.60
2018-06-30T07:50:11.545Z,71.40
2018-06-30T07:52:40.248Z,71.10
2018-06-30T07:55:09.206Z,69.50
2018-06-30T07:57:38.018Z,69.30
2018-06-30T08:00:07.795Z,68.30
2018-06-30T08:02:37.246Z,69.70
2018-06-30T08:05:06.077Z,70.00
2018-06-30T08:07:37.237Z,70.10
2018-06-30T08:10:09.073Z,69.10
2018-06-30T08:12:37.843Z,70.10
2018-06-30T08:15:06.749Z,67.90
2018-06-30T08:17:35.546Z,67.40
2018-06-30T08:20:04.486Z,67.90
2018-06-30T08:22:33.320Z,66.40
2018-06-30T08:25:02.925Z,65.70
2018-06-30T08:27:33.454Z,66.60
2018-06-30T08:30:02.515Z,66.70
2018-06-30T08:32:31.217Z,63.50
2018-06-30T08:34:59.963Z,63.50
2018-06-30T08:37:28.981Z,62.80
2018-06-30T08:39:57.678Z,64.30
2018-06-30T08:42:38.616Z,62.40
2018-06-30T08:45:08.090Z,62.70
2018-06-30T08:47:37.452Z,61.10
2018-06-30T08:50:06.879Z,60.10
2018-06-30T08:52:35.503Z,59.70
2018-06-30T08:55:04.846Z,57.50
2018-06-30T08:57:34.366Z,58.50
2018-06-30T09:00:04.180Z,59.00
2018-06-30T09:02:32.940Z,56.10
2018-06-30T09:05:01.596Z,57.50
2018-06-30T09:07:30.402Z,56.90
2018-06-30T09:10:01.525Z,56.60
2018-06-30T09:12:31.061Z,55.80
2018-06-30T09:14:59.784Z,54.50
2018-06-30T09:17:29.655Z,53.20
2018-06-30T09:19:58.718Z,53.70
2018-06-30T09:22:30.870Z,50.90
2018-06-30T09:24:59.964Z,52.90
2018-06-30T09:27:28.698Z,50.10
2018-06-30T09:29:58.850Z,51.90
2018-06-30T09:32:28.844Z,51.10
2018-06-30T09:34:57.845Z,50.60
2018-06-30T09:37:26.688Z,51.70
2018-06-30T09:39:55.939Z,48.40
2018-06-30T09:42:24.685Z,48.60
2018-06-30T09:44:53.471Z,47.90
2018-06-30T09:47:23.617Z,47.50
2018-06-30T09:49:52.501Z,46.00
2018-06-30T09:52:24.021Z,45.80
2018-06-30T09:54:58.080Z,46.20
2018-06-30T09:57:26.831Z,45.60
2018-06-30T09:59:55.493Z,42.70
2018-06-30T10:02:24.195Z,44.40
2018-06-30T10:04:52.887Z,45.70
2018-06-30T10:07:24.393Z,45.20
2018-06-30T10:09:54.075Z,43.90
2018-06-30T10:12:22.767Z,44.20
2018-06-30T10:14:51.888Z,42.30
2018-06-30T10:17:20.743Z,42.80
2018-06-30T10:19:49.385Z,41.30
2018-06-30T10:22:18.053Z,40.20
2018-06-30T10:24:46.750Z,37.70
2018-06-30T10:27:15.807Z,38.00
2018-06-30T10:29:44.606Z,35.50
2018-06-30T10:32:13.257Z,38.20
2018-06-30T10:34:42.911Z,36.90
2018-06-30T10:37:11.560Z,37.90
2018-06-30T10:39:40.289Z,36.60
2018-06-30T10:42:09.009Z,38.50
2018-06-30T10:44:37.769Z,38.30
2018-06-30T10:47:06.615Z,37.60
2018-06-30T10:49:39.571Z,36.40
2018-06-30T10:52:08.324Z,37.40
2018-06-30T10:54:47.708Z,37.10
2018-06-30T10:57:18.543Z,36.30
2018-06-30T10:59:47.210Z,35.10
2018-06-30T11:02:15.857Z,34.80
2018-06-30T11:04:44.954Z,35.00
2018-06-30T11:07:13.773Z,36.00
2018-06-30T11:09:42.432Z,34.80
2018-06-30T11:12:11.078Z,35.90
2018-06-30T11:14:40.085Z,33.60
2018-06-30T11:17:09.212Z,32.80
2018-06-30T11:19:38.631Z,30.40
2018-06-30T11:22:07.319Z,30.30
2018-06-30T11:24:35.963Z,28.90
2018-06-30T11:27:04.817Z,29.00
2018-06-30T11:29:34.103Z,30.00
2018-06-30T11:32:02.745Z,30.60
2018-06-30T11:34:31.464Z,27.50
2018-06-30T11:37:00.199Z,28.10
2018-06-30T11:39:28.912Z,28.90
2018-06-30T11:41:58.029Z,27.90
2018-06-30T11:44:26.681Z,28.70
2018-06-30T11:46:55.443Z,28.90
2018-06-30T11:49:25.128Z,27.60
2018-06-30T11:51:53.860Z,27.70
2018-06-30T11:54:22.626Z,26.80
2018-06-30T11:56:51.271Z,28.90
2018-06-30T11:59:19.983Z,29.80
2018-06-30T12:01:49.654Z,27.20
2018-06-30T12:04:18.348Z,27.30
2018-06-30T12:06:48.028Z,29.30
2018-06-30T12:09:21.896Z,28.40
2018-06-30T12:11:54.243Z,28.00
2018-06-30T12:14:23.442Z,29.20
2018-06-30T12:17:06.156Z,27.30
2018-06-30T12:19:35.031Z,27.50
2018-06-30T12:22:04.034Z,28.00
2018-06-30T12:24:32.705Z,26.20
2018-06-30T12:27:01.365Z,25.90
2018-06-30T12:29:30.080Z,28.90
2018-06-30T12:31:58.704Z,27.20
2018-06-30T12:34:27.319Z,26.50
2018-06-30T12:36:56.678Z,26.30
2018-06-30T12:39:25.406Z,24.60
2018-06-30T12:41:54.027Z,24.70
2018-06-30T12:44:22.673Z,27.40
2018-06-30T12:46:52.028Z,26.50
2018-06-30T12:49:20.712Z,26.70
2018-06-30T12:51:49.376Z,26.50
2018-06-30T12:54:18.121Z,26.10
2018-06-30T12:56:47.171Z,27.60
2018-06-30T12:59:15.869Z,25.50
2018-06-30T13:01:44.525Z,25.40
2018-06-30T13:04:13.614Z,23.20
2018-06-30T13:06:42.284Z,23.30
2018-06-30T13:09:12.810Z,22.90
2018-06-30T13:11:42.567Z,25.00
2018-06-30T13:14:11.326Z,26.00
2018-06-30T13:16:41.561Z,26.80
2018-06-30T13:19:10.537Z,24.70
2018-06-30T13:21:39.210Z,23.00
2018-06-30T13:24:08.158Z,24.80
2018-06-30T13:26:37.135Z,24.00
2018-06-30T13:29:05.857Z,23.00
2018-06-30T13:31:34.579Z,23.10
2018-06-30T13:34:04.649Z,23.40
2018-06-30T13:36:34.388Z,24.70
2018-06-30T13:39:06.962Z,23.20
2018-06-30T13:41:35.667Z,23.90
2018-06-30T13:44:04.880Z,24.60
2018-06-30T13:46:34.341Z,21.80
2018-06-30T13:49:03.401Z,23.60
2018-06-30T13:51:32.110Z,23.80
2018-06-30T13:54:01.816Z,23.40
2018-06-30T13:56:30.580Z,22.80
2018-06-30T13:58:59.325Z,22.60
2018-06-30T14:01:27.994Z,22.20
2018-06-30T14:03:56.669Z,23.90
2018-06-30T14:06:25.634Z,23.60
2018-06-30T14:08:54.425Z,22.90
2018-06-30T14:11:23.246Z,22.70
2018-06-30T14:13:52.322Z,21.90
2018-06-30T14:16:20.969Z,22.70
2018-06-30T14:18:49.592Z,21.20
2018-06-30T14:21:18.325Z,22.80
2018-06-30T14:23:46.970Z,22.00
2018-06-30T14:26:15.587Z,22.50
2018-06-30T14:28:44.515Z,22.60
2018-06-30T14:31:13.766Z,21.70
2018-06-30T14:33:42.445Z,21.40
2018-06-30T14:36:11.085Z,22.60
2018-06-30T14:38:39.819Z,23.60
2018-06-30T14:41:08.550Z,23.90
2018-06-30T14:43:37.218Z,21.80
2018-06-30T14:46:06.207Z,21.50
2018-06-30T14:48:34.927Z,22.40
2018-06-30T14:51:04.306Z,22.40
2018-06-30T14:53:33.848Z,22.60
2018-06-30T14:56:02.689Z,22.80
2018-06-30T14:58:31.530Z,22.10
2018-06-30T15:01:00.226Z,21.90
2018-06-30T15:03:29.062Z,22.20
2018-06-30T15:05:58.170Z,21.50
2018-06-30T15:08:26.949Z,21.20
2018-06-30T15:10:56.713Z,21.60
2018-06-30T15:13:25.425Z,21.00
2018-06-30T15:15:54.866Z,21.60
2018-06-30T15:18:23.993Z,21.30
2018-06-30T15:20:54.440Z,21.20
2018-06-30T15:23:24.501Z,21.40
2018-06-30T15:25:53.226Z,22.60
2018-06-30T15:28:22.545Z,22.70
2018-06-30T15:30:52.880Z,22.20
2018-06-30T15:33:21.558Z,22.30
2018-06-30T15:35:50.407Z,23.60
2018-06-30T15:38:19.480Z,22.80
2018-06-30T15:40:48.184Z,22.40
2018-06-30T15:43:17.554Z,24.50
2018-06-30T15:45:47.057Z,22.90
2018-06-30T15:48:16.116Z,23.80
2018-06-30T15:50:45.395Z,25.20
2018-06-30T15:53:14.000Z,24.20
2018-06-30T15:55:43.179Z,23.80
2018-06-30T15:58:12.197Z,25.20
2018-06-30T16:00:41.060Z,26.40
2018-06-30T16:03:10.363Z,27.50
2018-06-30T16:05:40.575Z,25.60
2018-06-30T16:08:09.758Z,27.70
2018-06-30T16:10:39.526Z,26.10
2018-06-30T16:13:08.973Z,26.00
2018-06-30T16:15:37.655Z,27.40
2018-06-30T16:18:07.146Z,26.50
2018-06-30T16:20:36.469Z,25.50
2018-06-30T16:23:05.199Z,29.10
2018-06-30T16:25:34.371Z,28.70
2018-06-30T16:28:03.380Z,28.00
2018-06-30T16:30:32.221Z,27.90
2018-06-30T16:33:00.992Z,28.80
2018-06-30T16:35:29.697Z,28.80
2018-06-30T16:38:00.553Z,28.80
2018-06-30T16:40:29.231Z,29.90
2018-06-30T16:42:57.997Z,30.10
2018-06-30T16:45:26.749Z,27.50
2018-06-30T16:47:56.985Z,28.00
2018-06-30T16:50:27.045Z,29.20
2018-06-30T16:52:55.721Z,28.70
2018-06-30T16:55:24.398Z,29.30
2018-06-30T16:57:53.147Z,30.50
2018-06-30T17:00:22.271Z,29.40
2018-06-30T17:02:50.977Z,30.10
2018-06-30T17:05:19.690Z,29.30
2018-06-30T17:07:48.374Z,28.40
2018-06-30T17:10:17.192Z,30.40
2018-06-30T17:12:45.837Z,31.50
2018-06-30T17:15:14.468Z,29.90
2018-06-30T17:17:43.149Z,30.40
2018-06-30T17:20:11.897Z,30.80
2018-06-30T17:22:40.502Z,32.30
2018-06-30T17:25:09.248Z,32.30
2018-06-30T17:27:37.913Z,32.20
2018-06-30T17:30:06.684Z,32.20
2018-06-30T17:32:35.409Z,30.30
2018-06-30T17:35:04.137Z,33.20
2018-06-30T17:37:33.004Z,30.40
2018-06-30T17:40:01.790Z,32.20
2018-06-30T17:42:30.527Z,31.10
2018-06-30T17:44:59.173Z,33.00
2018-06-30T17:47:27.832Z,32.80
2018-06-30T17:49:56.433Z,31.30
2018-06-30T17:52:25.472Z,33.50
2018-06-30T17:54:54.108Z,34.00
2018-06-30T17:57:22.807Z,34.40
2018-06-30T17:59:51.542Z,32.70
2018-06-30T18:02:20.171Z,32.70
2018-06-30T18:04:48.799Z,32.00
2018-06-30T18:07:17.436Z,35.80
2018-06-30T18:09:46.157Z,33.30
2018-06-30T18:12:15.012Z,33.30
2018-06-30T18:14:43.667Z,33.40
2018-06-30T18:17:12.409Z,33.60
2018-06-30T18:19:41.046Z,33.70
2018-06-30T18:22:09.689Z,34.70
2018-06-30T18:24:38.330Z,35.30
2018-06-30T18:27:07.607Z,36.20
2018-06-30T18:29:36.254Z,35.30
2018-06-30T18:32:05.974Z,34.50
2018-06-30T18:34:34.650Z,35.80
2018-06-30T18:37:03.358Z,35.00
2018-06-30T18:39:31.994Z,35.10
2018-06-30T18:42:00.650Z,35.10
2018-06-30T18:44:29.379Z,35.00
2018-06-30T18:46:58.044Z,35.50
2018-06-30T18:49:26.730Z,33.70
2018-06-30T18:51:55.512Z,37.10
2018-06-30T18:54:24.202Z,35.30
2018-06-30T18:56:52.914Z,34.80
2018-06-30T18:59:21.639Z,34.60
2018-06-30T19:01:50.377Z,35.10
2018-06-30T19:04:19.058Z,36.50
2018-06-30T19:06:47.722Z,37.10
2018-06-30T19:09:16.389Z,35.50
2018-06-30T19:11:45.519Z,36.20
2018-06-30T19:14:14.245Z,35.60
2018-06-30T19:16:42.907Z,35.90
2018-06-30T19:19:11.527Z,36.80
2018-06-30T19:21:40.161Z,36.40
2018-06-30T19:24:08.812Z,35.40
2018-06-30T19:26:37.486Z,35.50
2018-06-30T19:29:06.211Z,35.60
2018-06-30T19:31:35.209Z,35.60
2018-06-30T19:34:03.904Z,35.50
2018-06-30T19:36:32.623Z,36.30
2018-06-30T19:39:01.230Z,37.10
2018-06-30T19:41:29.935Z,35.90
2018-06-30T19:43:58.617Z,36.40
2018-06-30T19:46:27.255Z,36.20
2018-06-30T19:48:55.888Z,36.60
2018-06-30T19:51:24.600Z,37.00
2018-06-30T19:53:53.240Z,36.70
2018-06-30T19:56:21.906Z,36.90
2018-06-30T19:58:50.542Z,37.00
2018-06-30T20:01:19.271Z,36.60
2018-06-30T20:03:48.063Z,36.60
2018-06-30T20:06:16.818Z,36.80
2018-06-30T20:08:45.487Z,37.70
2018-06-30T20:11:14.104Z,37.40
2018-06-30T20:13:42.756Z,38.10
2018-06-30T20:16:11.752Z,37.90
2018-06-30T20:18:40.603Z,38.30
2018-06-30T20:21:09.276Z,38.00
2018-06-30T20:23:37.961Z,39.00
2018-06-30T20:26:06.661Z,39.20
2018-06-30T20:28:35.650Z,39.00
2018-06-30T20:31:04.319Z,39.10
2018-06-30T20:33:33.782Z,39.40
2018-06-30T20:36:02.442Z,39.10
2018-06-30T20:38:31.128Z,39.40
2018-06-30T20:40:59.758Z,39.50
2018-06-30T20:43:28.432Z,39.70
2018-06-30T20:45:57.090Z,40.30
2018-06-30T20:48:25.717Z,40.20
2018-06-30T20:50:54.397Z,40.40
2018-06-30T20:53:23.034Z,40.30
2018-06-30T20:55:52.360Z,40.30
2018-06-30T20:58:21.021Z,41.20
2018-06-30T21:00:49.714Z,41.30
2018-06-30T21:03:18.364Z,42.40
2018-06-30T21:05:47.331Z,42.20
2018-06-30T21:08:16.131Z,42.70
2018-06-30T21:10:44.714Z,42.60
2018-06-30T21:13:14.378Z,42.90
2018-06-30T21:15:43.252Z,43.00
2018-06-30T21:18:11.995Z,43.00
2018-06-30T21:20:40.973Z,42.90
2018-06-30T21:23:09.691Z,43.90
2018-06-30T21:25:38.289Z,44.30
2018-06-30T21:28:07.086Z,43.40
2018-06-30T21:30:35.944Z,42.80
2018-06-30T21:33:04.658Z,43.40
2018-06-30T21:35:33.428Z,42.50
2018-06-30T21:38:02.100Z,43.10
2018-06-30T21:40:30.863Z,43.40
2018-06-30T21:42:59.696Z,43.10
2018-06-30T21:45:28.454Z,43.30
2018-06-30T21:47:57.336Z,43.30
2018-06-30T21:50:26.106Z,44.20
2018-06-30T21:52:54.771Z,43.80
2018-06-30T21:55:23.500Z,43.60
2018-06-30T21:57:52.232Z,43.30
2018-06-30T22:00:30.370Z,43.30
2018-06-30T22:02:59.020Z,43.50
2018-06-30T22:05:27.740Z,44.30
2018-06-30T22:07:56.439Z,43.60
2018-06-30T22:10:25.164Z,43.40
2018-06-30T22:12:53.854Z,43.70
2018-06-30T22:15:22.584Z,43.90
2018-06-30T22:17:51.272Z,43.90
2018-06-30T22:20:19.907Z,44.10
2018-06-30T22:22:48.593Z,44.30
2018-06-30T22:25:17.271Z,44.20
2018-06-30T22:27:45.939Z,44.70
2018-06-30T22:30:14.590Z,44.90
2018-06-30T22:32:43.205Z,45.00
2018-06-30T22:35:11.897Z,45.00
2018-06-30T22:37:40.512Z,45.10
2018-06-30T22:40:16.024Z,45.80
2018-06-30T22:42:45.365Z,46.20
2018-06-30T22:45:14.387Z,45.90
2018-06-30T22:47:43.247Z,45.60
2018-06-30T22:50:12.128Z,46.00
2018-06-30T22:52:40.736Z,46.70
2018-06-30T22:55:09.388Z,46.80
2018-06-30T22:57:38.020Z,46.10
2018-06-30T23:00:09.414Z,46.50
2018-06-30T23:02:38.310Z,46.70
2018-06-30T23:05:07.581Z,46.80
2018-06-30T23:07:36.342Z,47.20
2018-06-30T23:10:05.155Z,46.90
2018-06-30T23:12:33.842Z,46.60
2018-06-30T23:15:02.538Z,47.50
2018-06-30T23:17:31.201Z,47.30
2018-06-30T23:19:59.863Z,47.70
2018-06-30T23:23:04.115Z,47.70
2018-06-30T23:25:33.402Z,47.70
2018-06-30T23:28:02.375Z,47.70
2018-06-30T23:30:31.557Z,48.30
2018-06-30T23:33:00.781Z,48.50
2018-06-30T23:35:31.149Z,49.40
2018-06-30T23:38:00.501Z,48.70
2018-06-30T23:40:29.223Z,49.00
2018-06-30T23:42:57.894Z,48.80
2018-06-30T23:45:26.562Z,49.00
2018-06-30T23:47:55.509Z,49.20
2018-06-30T23:50:24.508Z,49.00
2018-06-30T23:52:53.197Z,49.30
2018-06-30T23:55:21.860Z,49.40
2018-06-30T23:57:50.527Z,49.40
